Time;durP1;ratioP1;P1;durP2;ratioP2;P2;SDS_P1;SDS_P2;PMS_P1;PMS_P2;Temp;Humidity;BMP_temperature;BMP_pressure;BME280_temperature;BME280_humidity;BME280_pressure;Samples;Min_cycle;Max_cycle;Signal;HPM_P1;HPM_P2
2023/07/14 00:00:32;;;;;;;2.43;1.17;;;17.30;99.90;;;;;;4974813;28;20173;-84
2023/07/14 00:02:59;;;;;;;3.47;1.83;;;17.20;99.90;;;;;;4976346;28;20491;-84
2023/07/14 00:05:36;;;;;;;2.47;1.70;;;17.30;99.90;;;;;;4976376;28;20420;-85
2023/07/14 00:08:03;;;;;;;4.63;2.40;;;17.20;99.90;;;;;;4976516;28;20417;-83
2023/07/14 00:10:32;;;;;;;3.70;1.83;;;17.20;99.90;;;;;;4976052;28;20470;-84
2023/07/14 00:13:00;;;;;;;7.50;2.20;;;17.20;99.90;;;;;;4976200;28;20422;-83
2023/07/14 00:15:30;;;;;;;3.00;1.80;;;17.20;99.90;;;;;;4975823;28;20482;-84
2023/07/14 00:18:00;;;;;;;3.73;1.63;;;17.20;99.90;;;;;;4976052;28;20509;-83
2023/07/14 00:20:30;;;;;;;6.53;2.33;;;17.20;99.90;;;;;;4975909;28;20472;-83
2023/07/14 00:22:57;;;;;;;3.30;2.10;;;17.20;99.90;;;;;;4976098;28;20422;-83
2023/07/14 00:25:26;;;;;;;3.77;2.50;;;17.10;99.90;;;;;;4976109;28;20772;-83
2023/07/14 00:27:54;;;;;;;4.30;1.93;;;17.10;99.90;;;;;;4975983;28;20418;-83
2023/07/14 00:30:22;;;;;;;3.57;2.13;;;17.10;99.90;;;;;;4975538;28;20409;-82
2023/07/14 00:32:49;;;;;;;4.53;1.47;;;17.00;99.90;;;;;;4975859;28;20419;-82
2023/07/14 00:35:34;;;;;;;2.50;2.00;;;17.00;99.90;;;;;;4975805;28;20451;-82
2023/07/14 00:38:00;;;;;;;5.00;2.33;;;17.00;99.90;;;;;;4975718;28;20481;-82
2023/07/14 00:40:36;;;;;;;2.27;1.50;;;16.90;99.90;;;;;;4975773;28;20418;-82
2023/07/14 00:43:20;;;;;;;1.83;1.27;;;16.80;99.90;;;;;;4974533;28;20204;-82
2023/07/14 00:45:51;;;;;;;3.10;2.17;;;16.80;99.90;;;;;;4975326;28;20811;-82
2023/07/14 00:48:21;;;;;;;3.87;2.17;;;16.70;99.90;;;;;;4975470;28;20426;-83
2023/07/14 00:51:05;;;;;;;2.30;1.53;;;16.80;99.90;;;;;;4974179;28;20446;-83
2023/07/14 00:53:43;;;;;;;2.97;1.90;;;16.80;99.90;;;;;;4975524;28;20437;-83
2023/07/14 00:56:14;;;;;;;4.13;2.00;;;16.80;99.90;;;;;;4975461;28;20550;-83
2023/07/14 00:58:42;;;;;;;2.73;1.70;;;16.70;99.90;;;;;;4974190;28;20435;-83
2023/07/14 01:01:21;;;;;;;5.20;2.20;;;16.70;99.90;;;;;;4975066;28;20424;-84
2023/07/14 01:03:48;;;;;;;2.87;1.67;;;16.60;99.90;;;;;;4975400;28;20477;-83
2023/07/14 01:06:34;;;;;;;3.00;2.70;;;16.50;99.90;;;;;;4975065;28;20444;-83
2023/07/14 01:09:10;;;;;;;2.50;1.53;;;16.50;99.90;;;;;;4975138;28;20560;-83
2023/07/14 01:11:43;;;;;;;2.40;1.70;;;16.50;99.90;;;;;;4975216;28;20421;-82
2023/07/14 01:14:16;;;;;;;4.33;2.07;;;16.40;99.90;;;;;;4975069;28;20786;-81
2023/07/14 01:16:42;;;;;;;2.70;2.50;;;16.40;99.90;;;;;;4974617;28;20453;-82
2023/07/14 01:19:32;;;;;;;2.63;2.03;;;16.40;99.90;;;;;;4974988;28;20416;-84
2023/07/14 01:22:20;;;;;;;3.80;1.70;;;16.30;99.90;;;;;;4974878;28;20429;-82
2023/07/14 01:25:16;;;;;;;2.63;1.80;;;16.30;99.90;;;;;;4974899;28;20414;-83
2023/07/14 01:27:42;;;;;;;3.43;2.37;;;16.20;99.90;;;;;;4993271;28;20792;-83
2023/07/14 01:30:08;;;;;;;6.30;1.60;;;16.20;99.90;;;;;;4974440;28;20418;-83
2023/07/14 01:32:39;;;;;;;2.00;1.73;;;16.20;99.90;;;;;;4974755;28;20174;-83
2023/07/14 01:35:07;;;;;;;4.33;1.53;;;16.10;99.90;;;;;;4974727;28;20472;-83
2023/07/14 01:37:37;;;;;;;3.30;2.10;;;16.10;99.90;;;;;;4974555;28;20551;-83
2023/07/14 01:40:12;;;;;;;3.30;1.60;;;16.10;99.90;;;;;;4974357;28;20452;-83
2023/07/14 01:42:40;;;;;;;2.60;1.80;;;16.00;99.90;;;;;;4974674;28;20475;-83
2023/07/14 01:45:14;;;;;;;4.33;1.97;;;16.00;99.90;;;;;;4974234;28;20408;-82
2023/07/14 01:47:44;;;;;;;5.13;2.00;;;16.00;99.90;;;;;;4973320;28;20435;-82
2023/07/14 01:50:20;;;;;;;2.43;1.40;;;16.00;99.90;;;;;;4974541;28;20498;-82
2023/07/14 01:52:47;;;;;;;2.10;1.40;;;15.90;99.90;;;;;;4974076;28;20427;-83
2023/07/14 01:55:15;;;;;;;2.30;1.53;;;15.90;99.90;;;;;;4974432;28;20430;-83
2023/07/14 01:57:42;;;;;;;2.87;1.57;;;15.90;99.90;;;;;;4974248;28;20566;-84
2023/07/14 02:00:09;;;;;;;3.93;2.70;;;15.90;99.90;;;;;;4974043;28;20422;-83
2023/07/14 02:02:36;;;;;;;4.43;2.10;;;15.90;99.90;;;;;;4974299;28;21111;-83
2023/07/14 02:05:07;;;;;;;3.37;2.57;;;15.90;99.90;;;;;;4974320;28;20418;-83
2023/07/14 02:07:33;;;;;;;2.70;2.20;;;15.90;99.90;;;;;;4974274;28;20426;-83
2023/07/14 02:09:58;;;;;;;3.67;1.97;;;15.90;99.90;;;;;;4974089;28;20479;-81
2023/07/14 02:12:30;;;;;;;2.70;1.73;;;16.00;99.90;;;;;;4974249;28;20466;-84
2023/07/14 02:15:09;;;;;;;2.90;1.70;;;16.00;99.90;;;;;;4973824;28;20195;-82
2023/07/14 02:17:36;;;;;;;3.13;1.70;;;16.00;99.90;;;;;;4974161;28;21010;-82
2023/07/14 02:20:13;;;;;;;2.60;1.97;;;16.00;99.90;;;;;;4974210;28;20419;-84
2023/07/14 02:22:39;;;;;;;3.27;2.30;;;16.00;99.90;;;;;;4974267;28;20420;-82
2023/07/14 02:25:09;;;;;;;2.47;1.93;;;15.90;99.90;;;;;;4972824;28;21060;-83
2023/07/14 02:27:35;;;;;;;6.00;2.23;;;15.90;99.90;;;;;;4972467;28;20425;-83
2023/07/14 02:30:17;;;;;;;4.50;2.40;;;15.90;99.90;;;;;;4973644;28;20417;-83
2023/07/14 02:33:09;;;;;;;2.87;2.57;;;15.90;99.90;;;;;;4974015;28;20174;-83
2023/07/14 02:35:58;;;;;;;5.30;2.13;;;15.90;99.90;;;;;;4972743;28;20451;-82
2023/07/14 02:38:24;;;;;;;7.33;2.60;;;15.90;99.90;;;;;;4973882;28;20469;-83
2023/07/14 02:40:53;;;;;;;3.77;1.90;;;15.90;99.90;;;;;;4974018;28;20415;-82
2023/07/14 02:43:21;;;;;;;4.43;2.40;;;15.90;99.90;;;;;;4973596;28;20434;-83
2023/07/14 02:45:54;;;;;;;2.90;2.40;;;15.80;99.90;;;;;;4973523;28;20796;-83
2023/07/14 02:48:26;;;;;;;3.20;2.30;;;15.80;99.90;;;;;;4973192;28;20451;-83
2023/07/14 02:50:52;;;;;;;4.23;2.40;;;15.80;99.90;;;;;;4973867;28;20416;-83
2023/07/14 02:53:17;;;;;;;3.20;2.10;;;15.80;99.90;;;;;;4973740;28;20409;-83
2023/07/14 02:55:43;;;;;;;3.27;1.57;;;15.80;99.90;;;;;;4973824;28;20184;-83
2023/07/14 02:58:08;;;;;;;2.30;1.50;;;15.70;99.90;;;;;;4973323;28;20210;-83
2023/07/14 03:00:34;;;;;;;2.30;2.03;;;15.80;99.90;;;;;;4973415;28;20178;-81
2023/07/14 03:03:00;;;;;;;3.30;1.63;;;15.80;99.90;;;;;;4973601;28;20260;-85
2023/07/14 03:05:26;;;;;;;5.53;2.93;;;15.70;99.90;;;;;;4974691;28;20498;-81
2023/07/14 03:07:51;;;;;;;3.97;2.93;;;15.80;99.90;;;;;;4977317;28;20446;-84
2023/07/14 03:10:17;;;;;;;2.70;2.17;;;15.80;99.90;;;;;;4977240;28;20304;-81
2023/07/14 03:12:42;;;;;;;4.57;2.60;;;15.80;99.90;;;;;;4977263;28;20215;-81
2023/07/14 03:15:08;;;;;;;4.57;2.07;;;15.80;99.90;;;;;;4976941;28;20164;-82
2023/07/14 03:17:34;;;;;;;3.73;2.70;;;15.80;99.90;;;;;;4977032;28;20236;-81
2023/07/14 03:19:59;;;;;;;3.60;1.80;;;15.70;99.90;;;;;;4977021;28;20572;-82
2023/07/14 03:22:30;;;;;;;3.10;2.17;;;15.80;99.90;;;;;;4977198;28;20179;-84
2023/07/14 03:24:56;;;;;;;2.73;2.30;;;15.70;99.90;;;;;;4977173;28;20176;-81
2023/07/14 03:27:22;;;;;;;2.93;2.63;;;15.70;99.90;;;;;;4977045;28;20429;-84
2023/07/14 03:29:48;;;;;;;3.60;2.37;;;15.60;99.90;;;;;;4976598;28;20430;-81
2023/07/14 03:32:13;;;;;;;4.53;2.43;;;15.60;99.90;;;;;;4976987;28;20177;-85
2023/07/14 03:34:40;;;;;;;3.60;2.70;;;15.60;99.90;;;;;;4976862;28;20421;-83
2023/07/14 03:37:06;;;;;;;3.57;2.57;;;15.60;99.90;;;;;;4976849;28;20212;-83
2023/07/14 03:39:31;;;;;;;2.30;2.00;;;15.70;99.90;;;;;;4976908;28;20820;-82
2023/07/14 03:41:57;;;;;;;4.77;2.50;;;15.70;99.90;;;;;;4975363;28;20180;-83
2023/07/14 03:44:24;;;;;;;4.47;2.57;;;15.70;99.90;;;;;;4976414;28;20201;-85
2023/07/14 03:46:53;;;;;;;3.70;2.57;;;15.60;99.90;;;;;;4976433;28;20585;-85
2023/07/14 03:49:18;;;;;;;3.20;2.27;;;15.70;99.90;;;;;;4976821;28;20420;-85
2023/07/14 03:51:47;;;;;;;4.07;3.20;;;15.70;99.90;;;;;;4976600;28;20435;-85
2023/07/14 03:54:13;;;;;;;4.50;3.60;;;15.80;99.90;;;;;;4976681;28;20571;-82
2023/07/14 03:56:38;;;;;;;4.07;3.67;;;15.80;99.90;;;;;;4976492;28;20561;-82
2023/07/14 03:59:04;;;;;;;3.83;3.03;;;15.80;99.90;;;;;;4976560;28;20176;-85
2023/07/14 04:01:29;;;;;;;3.70;2.93;;;15.80;99.90;;;;;;4976245;28;20235;-85
2023/07/14 04:03:56;;;;;;;3.70;3.00;;;15.80;99.90;;;;;;4976453;28;20538;-83
2023/07/14 04:06:21;;;;;;;5.07;3.20;;;15.90;99.90;;;;;;4976459;28;20185;-84
2023/07/14 04:08:54;;;;;;;4.50;3.00;;;15.90;99.90;;;;;;4976405;28;20428;-84
2023/07/14 04:11:19;;;;;;;4.63;2.53;;;15.90;99.90;;;;;;4976250;28;20691;-84
2023/07/14 04:13:45;;;;;;;3.90;3.00;;;15.90;99.90;;;;;;4975029;28;20433;-84
2023/07/14 04:16:13;;;;;;;4.17;2.93;;;15.80;99.90;;;;;;4974222;28;20204;-85
2023/07/14 04:18:39;;;;;;;4.03;3.63;;;15.90;99.90;;;;;;4975036;28;20272;-86
2023/07/14 04:21:10;;;;;;;4.60;2.87;;;16.00;99.90;;;;;;4976130;28;20922;-86
2023/07/14 04:23:39;;;;;;;6.10;3.60;;;16.00;99.90;;;;;;4976242;28;20181;-87
2023/07/14 04:26:11;;;;;;;3.60;2.63;;;16.00;99.90;;;;;;4975916;28;20511;-87
2023/07/14 04:28:37;;;;;;;3.50;2.53;;;16.00;99.90;;;;;;4975973;28;20408;-83
2023/07/14 04:31:02;;;;;;;4.33;3.20;;;16.00;99.90;;;;;;4975642;28;20435;-85
2023/07/14 04:33:28;;;;;;;4.20;3.70;;;16.10;99.90;;;;;;4975775;28;20541;-85
2023/07/14 04:35:55;;;;;;;5.17;3.97;;;16.10;99.90;;;;;;4974434;28;20212;-83
2023/07/14 04:38:21;;;;;;;4.63;3.73;;;16.10;99.90;;;;;;4975826;28;20958;-83
2023/07/14 04:40:47;;;;;;;5.73;3.47;;;16.10;99.90;;;;;;4975747;28;20474;-82
2023/07/14 04:43:13;;;;;;;5.73;4.90;;;16.10;99.90;;;;;;4975771;28;20913;-83
2023/07/14 04:45:41;;;;;;;5.03;3.73;;;16.10;99.90;;;;;;4975169;28;20650;-83
2023/07/14 04:48:13;;;;;;;6.40;4.40;;;16.10;99.90;;;;;;4973098;28;20927;-84
2023/07/14 04:50:39;;;;;;;5.47;4.10;;;16.10;99.90;;;;;;4972487;28;20791;-84
2023/07/14 04:53:06;;;;;;;6.33;4.70;;;16.20;99.90;;;;;;4975588;28;20452;-84
2023/07/14 04:55:36;;;;;;;6.97;3.73;;;16.20;99.90;;;;;;4974582;28;20429;-83
2023/07/14 04:58:04;;;;;;;9.80;5.00;;;16.20;99.90;;;;;;4974946;28;20479;-83
2023/07/14 05:00:31;;;;;;;6.23;4.77;;;16.30;99.90;;;;;;4973115;28;20465;-83
2023/07/14 05:02:56;;;;;;;6.73;4.80;;;16.30;99.90;;;;;;4973427;28;21384;-84
2023/07/14 05:05:24;;;;;;;6.20;4.33;;;16.40;99.90;;;;;;4973909;28;20428;-84
2023/07/14 05:07:50;;;;;;;5.60;4.40;;;16.60;99.90;;;;;;4975194;28;20790;-83
2023/07/14 05:10:17;;;;;;;6.63;4.07;;;16.70;99.90;;;;;;4974902;28;20516;-84
2023/07/14 05:12:42;;;;;;;9.17;4.90;;;16.70;99.90;;;;;;4975145;28;20565;-83
2023/07/14 05:15:10;;;;;;;4.87;4.37;;;16.60;99.90;;;;;;4974809;28;20512;-84
2023/07/14 05:17:41;;;;;;;5.57;4.53;;;16.70;99.90;;;;;;4974927;28;20819;-84
2023/07/14 05:20:10;;;;;;;6.20;5.63;;;16.70;99.90;;;;;;4975001;28;20413;-87
2023/07/14 05:22:41;;;;;;;8.60;7.67;;;16.80;99.90;;;;;;4974793;28;20872;-84
2023/07/14 05:25:07;;;;;;;6.83;5.50;;;16.90;99.90;;;;;;4973737;28;20430;-84
2023/07/14 05:27:34;;;;;;;8.17;7.23;;;17.10;99.90;;;;;;4974391;28;20899;-85
2023/07/14 05:30:00;;;;;;;6.70;4.90;;;17.20;99.90;;;;;;4989286;28;20522;-84
2023/07/14 05:32:25;;;;;;;8.70;6.03;;;17.40;99.90;;;;;;4974793;28;20427;-86
2023/07/14 05:34:51;;;;;;;7.70;6.50;;;17.50;99.90;;;;;;4974397;28;20872;-85
2023/07/14 05:37:18;;;;;;;6.03;5.43;;;17.60;99.90;;;;;;4974114;28;20221;-85
2023/07/14 05:39:44;;;;;;;9.40;6.43;;;17.70;99.90;;;;;;4974215;28;20413;-83
2023/07/14 05:42:09;;;;;;;9.40;6.20;;;17.70;99.90;;;;;;4974262;28;20513;-85
2023/07/14 05:44:36;;;;;;;9.43;5.60;;;17.90;99.90;;;;;;4974244;28;20414;-82
2023/07/14 05:47:01;;;;;;;7.33;5.10;;;18.10;99.90;;;;;;4989486;28;20627;-83
2023/07/14 05:49:27;;;;;;;5.90;5.40;;;18.20;99.90;;;;;;4972841;28;20426;-81
2023/07/14 05:51:53;;;;;;;8.77;6.67;;;18.40;99.90;;;;;;4974290;28;20205;-83
2023/07/14 05:54:19;;;;;;;7.67;6.20;;;18.60;99.90;;;;;;4974224;28;20693;-83
2023/07/14 05:56:46;;;;;;;8.40;5.73;;;18.60;99.90;;;;;;4974238;28;20478;-81
2023/07/14 05:59:11;;;;;;;8.33;6.57;;;18.70;99.90;;;;;;4974314;28;20414;-83
2023/07/14 06:01:37;;;;;;;11.07;7.50;;;18.70;99.90;;;;;;4972546;28;20432;-84
2023/07/14 06:04:05;;;;;;;6.03;5.27;;;18.80;99.90;;;;;;4974329;28;20211;-81
2023/07/14 06:06:31;;;;;;;9.07;6.23;;;19.10;99.90;;;;;;4974095;28;20164;-83
2023/07/14 06:08:57;;;;;;;7.73;6.93;;;19.20;99.90;;;;;;4974138;28;20427;-85
2023/07/14 06:11:23;;;;;;;9.93;6.00;;;19.50;99.90;;;;;;4974283;28;20500;-85
2023/07/14 06:13:48;;;;;;;6.27;4.83;;;19.70;1.00;;;;;;4985342;28;20220;-84
2023/07/14 06:16:14;;;;;;;8.50;6.47;;;19.80;1.00;;;;;;4975580;28;20595;-84
2023/07/14 06:18:39;;;;;;;10.20;6.60;;;20.00;1.00;;;;;;4989191;28;20188;-85
2023/07/14 06:21:05;;;;;;;7.73;5.83;;;20.00;1.00;;;;;;4974223;28;20176;-83
2023/07/14 06:23:31;;;;;;;7.30;6.30;;;20.20;1.00;;;;;;4974091;28;20203;-85
2023/07/14 06:25:58;;;;;;;6.50;5.37;;;20.30;1.00;;;;;;4973586;28;20242;-83
2023/07/14 06:28:24;;;;;;;6.60;5.03;;;20.50;1.00;;;;;;4973963;28;20164;-81
2023/07/14 06:30:56;;;;;;;5.93;5.10;;;20.50;1.00;;;;;;4973674;28;20822;-81
2023/07/14 06:33:22;;;;;;;8.83;6.00;;;20.70;1.00;;;;;;4973899;28;20494;-80
2023/07/14 06:35:48;;;;;;;6.63;5.93;;;20.60;99.90;;;;;;4974056;28;20931;-84
2023/07/14 06:38:16;;;;;;;7.47;6.67;;;20.40;99.90;;;;;;4973554;28;20209;-85
2023/07/14 06:40:42;;;;;;;6.47;5.20;;;20.70;99.90;;;;;;4977234;28;20176;-81
2023/07/14 06:43:09;;;;;;;7.70;5.07;;;20.70;99.90;;;;;;4977856;28;20482;-83
2023/07/14 06:45:35;;;;;;;7.93;5.77;;;20.70;99.90;;;;;;4977610;28;20184;-85
2023/07/14 06:48:01;;;;;;;6.63;5.50;;;20.90;99.90;;;;;;4977325;28;20451;-83
2023/07/14 06:50:26;;;;;;;5.83;5.23;;;21.00;99.90;;;;;;4975887;28;20432;-85
2023/07/14 06:52:52;;;;;;;6.53;5.57;;;21.30;99.90;;;;;;4977379;28;20416;-83
2023/07/14 06:55:18;;;;;;;6.00;5.20;;;21.40;1.00;;;;;;4976205;28;20176;-85
2023/07/14 06:57:44;;;;;;;8.90;5.60;;;21.70;1.00;;;;;;4977304;28;20495;-82
2023/07/14 07:00:12;;;;;;;7.30;5.93;;;21.90;1.00;;;;;;4975543;28;20428;-82
2023/07/14 07:02:39;;;;;;;5.07;4.03;;;22.30;99.90;;;;;;4976768;28;20186;-84
2023/07/14 07:05:06;;;;;;;5.70;4.37;;;22.60;99.90;;;;;;4976901;28;20554;-82
2023/07/14 07:07:32;;;;;;;5.20;4.70;;;23.00;99.90;;;;;;4976798;28;20426;-82
2023/07/14 07:09:58;;;;;;;5.90;4.13;;;23.50;1.00;;;;;;4976618;28;20811;-81
2023/07/14 07:12:23;;;;;;;5.20;4.30;;;24.00;99.90;;;;;;4976756;28;20423;-84
2023/07/14 07:14:49;;;;;;;4.00;3.57;;;24.50;99.90;;;;;;4976429;28;20165;-84
2023/07/14 07:17:15;;;;;;;5.10;3.57;;;24.90;1.00;;;;;;4976592;28;20212;-84
2023/07/14 07:19:40;;;;;;;4.30;3.80;;;25.50;1.00;;;;;;4976715;28;20419;-83
2023/07/14 07:22:09;;;;;;;4.53;3.53;;;26.00;99.90;;;;;;4976872;28;20557;-82
2023/07/14 07:24:35;;;;;;;7.30;4.13;;;26.40;99.90;;;;;;4976312;28;20662;-81
2023/07/14 07:27:04;;;;;;;3.30;2.40;;;26.90;99.90;;;;;;4977013;28;20415;-81
2023/07/14 07:29:30;;;;;;;3.90;3.13;;;27.30;99.90;;;;;;4976777;28;20546;-81
2023/07/14 07:31:56;;;;;;;5.47;4.17;;;27.60;93.00;;;;;;4977072;28;20484;-82
2023/07/14 07:34:21;;;;;;;6.50;3.63;;;27.80;74.40;;;;;;4976917;28;20441;-81
2023/07/14 07:36:47;;;;;;;5.50;3.30;;;28.10;50.00;;;;;;4976600;28;20603;-82
2023/07/14 07:39:12;;;;;;;5.20;3.03;;;28.30;28.00;;;;;;4975734;28;20179;-82
2023/07/14 07:41:39;;;;;;;4.87;3.70;;;28.50;25.60;;;;;;4976597;28;20172;-82
2023/07/14 07:44:08;;;;;;;3.53;2.50;;;28.80;23.40;;;;;;4976475;28;20168;-82
2023/07/14 07:46:34;;;;;;;4.03;2.60;;;29.10;21.10;;;;;;4976845;28;20769;-82
2023/07/14 07:49:00;;;;;;;3.47;2.50;;;29.40;1.00;;;;;;4976317;28;20424;-82
2023/07/14 07:51:25;;;;;;;5.20;3.80;;;29.70;1.00;;;;;;4974834;28;20443;-82
2023/07/14 07:53:51;;;;;;;3.70;3.07;;;29.90;1.00;;;;;;4975774;28;20292;-84
2023/07/14 07:56:17;;;;;;;4.97;3.20;;;29.90;1.00;;;;;;4975711;28;20188;-81
2023/07/14 07:58:43;;;;;;;3.90;2.40;;;30.10;1.00;;;;;;4974840;28;20176;-82
2023/07/14 08:01:15;;;;;;;2.73;1.90;;;30.10;1.00;;;;;;4975713;28;20516;-82
2023/07/14 08:03:41;;;;;;;7.13;2.83;;;30.20;1.00;;;;;;4975888;28;21067;-81
2023/07/14 08:06:06;;;;;;;3.50;2.00;;;30.50;1.00;;;;;;4976122;28;20415;-81
2023/07/14 08:08:32;;;;;;;3.40;1.90;;;30.50;1.00;;;;;;4975928;28;20220;-81
2023/07/14 08:10:58;;;;;;;2.70;1.47;;;30.90;1.00;;;;;;4975842;28;20224;-81
2023/07/14 08:13:25;;;;;;;2.47;1.73;;;31.10;1.00;;;;;;4975887;28;20504;-82
2023/07/14 08:15:54;;;;;;;2.73;1.80;;;31.40;1.00;;;;;;4975558;28;20956;-83
2023/07/14 08:18:21;;;;;;;3.73;1.60;;;31.40;1.00;;;;;;4975614;28;20493;-82
2023/07/14 08:20:49;;;;;;;4.43;2.77;;;31.60;1.00;;;;;;4975733;28;20412;-82
2023/07/14 08:23:16;;;;;;;5.43;2.50;;;31.70;1.00;;;;;;4975693;28;21087;-82
2023/07/14 08:25:41;;;;;;;2.30;1.37;;;31.80;1.00;;;;;;4974292;28;20416;-81
2023/07/14 08:28:07;;;;;;;6.00;2.10;;;31.90;1.00;;;;;;4974447;28;20432;-82
2023/07/14 08:30:33;;;;;;;3.80;1.70;;;31.80;1.00;;;;;;4975118;28;20180;-83
2023/07/14 08:32:58;;;;;;;4.50;2.33;;;31.80;1.00;;;;;;4975663;28;20543;-83
2023/07/14 08:35:24;;;;;;;1.90;1.63;;;31.80;1.00;;;;;;4975397;28;20181;-82
2023/07/14 08:37:50;;;;;;;3.60;1.90;;;32.00;1.00;;;;;;4975021;28;20230;-82
2023/07/14 08:40:23;;;;;;;4.10;2.73;;;32.20;1.00;;;;;;4975516;28;20408;-85
2023/07/14 08:43:06;;;;;;;5.80;1.90;;;32.30;1.00;;;;;;4974072;28;20459;-82
2023/07/14 08:45:51;;;;;;;5.90;2.00;;;32.40;1.00;;;;;;4974987;28;20423;-84
2023/07/14 08:48:29;;;;;;;2.90;1.77;;;32.30;1.00;;;;;;4975178;28;20415;-81
2023/07/14 08:50:58;;;;;;;3.87;2.20;;;32.50;1.00;;;;;;4975007;28;20455;-83
2023/07/14 08:53:28;;;;;;;3.47;1.47;;;32.80;1.00;;;;;;4975398;28;20412;-82
2023/07/14 08:56:04;;;;;;;3.30;1.60;;;32.80;1.00;;;;;;4974333;28;20802;-83
2023/07/14 08:58:38;;;;;;;2.20;0.90;;;33.00;1.00;;;;;;4956184;29;20429;-84
2023/07/14 09:01:19;;;;;;;4.30;1.83;;;33.20;1.00;;;;;;4955773;28;20423;-82
2023/07/14 09:03:49;;;;;;;3.23;1.20;;;33.50;1.00;;;;;;4953848;28;20429;-85
2023/07/14 09:06:35;;;;;;;1.67;1.20;;;33.60;1.00;;;;;;4955804;28;20503;-84
2023/07/14 09:09:02;;;;;;;1.90;1.27;;;33.90;1.00;;;;;;4954511;28;20480;-83
2023/07/14 09:11:41;;;;;;;1.80;0.83;;;33.80;1.00;;;;;;4955907;28;20420;-83
2023/07/14 09:14:23;;;;;;;4.53;0.87;;;34.00;1.00;;;;;;4955529;28;20417;-83
2023/07/14 09:17:24;;;;;;;3.10;1.40;;;33.90;1.00;;;;;;4955791;28;20472;-83
2023/07/14 09:20:22;;;;;;;2.13;1.30;;;34.00;1.00;;;;;;4955746;28;20522;-84
2023/07/14 09:22:59;;;;;;;3.50;1.00;;;34.10;1.00;;;;;;4955758;28;20428;-83
2023/07/14 09:25:40;;;;;;;1.80;0.97;;;34.40;1.00;;;;;;4970508;28;20447;-84
2023/07/14 09:28:17;;;;;;;2.13;1.10;;;34.40;1.00;;;;;;4955756;28;20412;-83
2023/07/14 09:30:45;;;;;;;5.77;1.57;;;34.40;1.00;;;;;;4955251;28;20508;-84
2023/07/14 09:33:14;;;;;;;4.13;1.30;;;34.60;1.00;;;;;;4955563;28;20404;-83
2023/07/14 09:35:41;;;;;;;1.57;1.00;;;34.80;1.00;;;;;;4955557;28;20856;-84
2023/07/14 09:38:19;;;;;;;2.53;1.50;;;34.80;1.00;;;;;;4955460;28;20488;-83
2023/07/14 09:40:48;;;;;;;2.17;0.90;;;34.00;1.00;;;;;;4955496;28;20416;-83
2023/07/14 09:43:14;;;;;;;3.60;1.27;;;33.10;1.00;;;;;;4954201;28;20428;-83
2023/07/14 09:45:40;;;;;;;3.23;1.20;;;32.20;1.00;;;;;;4969762;28;20424;-84
2023/07/14 09:48:10;;;;;;;1.63;0.77;;;31.70;1.00;;;;;;4954143;28;20181;-84
2023/07/14 09:50:41;;;;;;;3.23;1.50;;;31.60;1.00;;;;;;4955305;28;20827;-86
2023/07/14 09:53:08;;;;;;;3.67;1.90;;;31.80;1.00;;;;;;4954939;28;20413;-85
2023/07/14 09:55:53;;;;;;;4.30;1.57;;;31.50;1.00;;;;;;4954615;28;20427;-83
2023/07/14 09:58:25;;;;;;;2.70;1.33;;;31.60;1.00;;;;;;4954791;29;20559;-82
2023/07/14 10:00:53;;;;;;;4.43;1.33;;;32.00;1.00;;;;;;4954508;28;20420;-82
2023/07/14 10:03:19;;;;;;;2.40;1.57;;;32.10;1.00;;;;;;4954775;28;21048;-84
2023/07/14 10:05:54;;;;;;;2.63;1.00;;;32.10;1.00;;;;;;4954590;28;20499;-84
2023/07/14 10:08:29;;;;;;;2.93;1.40;;;32.00;1.00;;;;;;4954738;28;20688;-83
2023/07/14 10:10:56;;;;;;;3.57;1.37;;;31.60;1.00;;;;;;4954818;28;20476;-82
2023/07/14 10:13:27;;;;;;;5.00;1.23;;;31.10;1.00;;;;;;4954352;28;20419;-82
2023/07/14 10:15:57;;;;;;;3.40;0.83;;;30.60;1.00;;;;;;4953885;28;20408;-85
2023/07/14 10:18:24;;;;;;;3.47;1.07;;;30.60;1.00;;;;;;4955165;28;20864;-83
2023/07/14 10:21:06;;;;;;;2.70;1.00;;;31.20;1.00;;;;;;4973597;28;20415;-84
2023/07/14 10:23:32;;;;;;;4.40;1.17;;;32.00;1.00;;;;;;4971662;28;20470;-84
2023/07/14 10:26:03;;;;;;;3.47;1.17;;;31.70;1.00;;;;;;4973494;28;20427;-84
2023/07/14 10:28:29;;;;;;;3.17;1.10;;;31.20;1.00;;;;;;4971129;28;20452;-83
2023/07/14 10:31:22;;;;;;;4.77;1.37;;;30.30;1.00;;;;;;4972485;28;20486;-86
2023/07/14 10:33:54;;;;;;;5.17;2.40;;;29.60;1.00;;;;;;4972669;28;20547;-86
2023/07/14 10:36:27;;;;;;;3.27;1.63;;;28.90;1.00;;;;;;4973705;28;20881;-85
2023/07/14 10:39:06;;;;;;;4.67;1.83;;;28.40;1.00;;;;;;4974032;28;20434;-83
2023/07/14 10:41:35;;;;;;;4.57;1.87;;;28.00;1.00;;;;;;4973890;28;20423;-84
2023/07/14 10:44:13;;;;;;;3.07;1.50;;;27.50;1.00;;;;;;4972195;28;20428;-82
2023/07/14 10:46:47;;;;;;;2.83;2.37;;;27.00;1.00;;;;;;4972678;28;21117;-86
2023/07/14 10:49:15;;;;;;;3.43;1.70;;;27.30;1.00;;;;;;4972745;28;20442;-87
2023/07/14 10:51:51;;;;;;;2.73;1.50;;;28.20;1.00;;;;;;4972707;28;20426;-88
2023/07/14 10:54:23;;;;;;;2.97;1.60;;;29.30;1.00;;;;;;4972581;28;20864;-85
2023/07/14 10:57:05;;;;;;;2.93;1.23;;;30.20;1.00;;;;;;4973691;28;20845;-85
2023/07/14 10:59:51;;;;;;;1.90;0.90;;;31.40;1.00;;;;;;4972272;28;20447;-82
2023/07/14 11:02:32;;;;;;;2.70;1.03;;;32.40;1.00;;;;;;4973861;28;20478;-85
2023/07/14 11:05:14;;;;;;;3.37;1.80;;;33.30;1.00;;;;;;4973841;28;20426;-85
2023/07/14 11:07:40;;;;;;;2.00;1.17;;;33.60;1.00;;;;;;4973848;28;20754;-83
2023/07/14 11:10:25;;;;;;;4.00;1.23;;;34.00;1.00;;;;;;4973534;28;20462;-84
2023/07/14 11:13:31;;;;;;;2.90;1.30;;;34.30;1.00;;;;;;4972629;28;20183;-84
2023/07/14 11:16:08;;;;;;;2.53;1.47;;;34.00;1.00;;;;;;4972458;28;20916;-83
2023/07/14 11:18:56;;;;;;;2.30;1.90;;;33.00;1.00;;;;;;4966720;28;20431;-83
2023/07/14 11:21:32;;;;;;;4.00;2.00;;;31.90;1.00;;;;;;4972415;28;20562;-84
2023/07/14 11:24:18;;;;;;;2.33;1.30;;;31.60;1.00;;;;;;4969974;28;20428;-83
2023/07/14 11:27:01;;;;;;;3.63;1.77;;;30.90;1.00;;;;;;4972304;28;20483;-83
2023/07/14 11:29:32;;;;;;;3.27;1.53;;;30.60;1.00;;;;;;4974347;28;20901;-84
2023/07/14 11:32:00;;;;;;;6.30;1.90;;;30.10;1.00;;;;;;4972350;28;20798;-85
2023/07/14 11:34:32;;;;;;;3.23;1.87;;;29.60;1.00;;;;;;4974680;28;20427;-84
2023/07/14 11:37:04;;;;;;;4.10;1.90;;;28.90;1.00;;;;;;4972372;28;20467;-87
2023/07/14 11:39:48;;;;;;;3.37;1.50;;;28.50;1.00;;;;;;4975808;28;20418;-86
2023/07/14 11:42:26;;;;;;;3.27;1.73;;;28.40;1.00;;;;;;4975593;28;20482;-84
2023/07/14 11:44:54;;;;;;;2.83;1.60;;;29.10;1.00;;;;;;4975253;28;20415;-84
2023/07/14 11:47:37;;;;;;;2.77;1.70;;;29.60;1.00;;;;;;4968933;28;20844;-83
2023/07/14 11:50:23;;;;;;;2.90;1.43;;;29.90;1.00;;;;;;4974159;28;20411;-86
2023/07/14 11:53:05;;;;;;;2.50;1.90;;;29.70;1.00;;;;;;4981629;28;20472;-87
2023/07/14 11:55:33;;;;;;;4.60;2.00;;;29.20;1.00;;;;;;4975098;28;20447;-86
2023/07/14 11:58:20;;;;;;;2.77;1.63;;;28.60;1.00;;;;;;4975117;28;20467;-85
2023/07/14 12:01:03;;;;;;;2.77;1.83;;;28.40;1.00;;;;;;4970142;28;20759;-84
2023/07/14 12:03:40;;;;;;;2.80;1.77;;;28.60;1.00;;;;;;4968040;28;20434;-85
2023/07/14 12:06:18;;;;;;;2.13;1.83;;;29.40;1.00;;;;;;4965927;28;20420;-86
2023/07/14 12:09:04;;;;;;;2.93;1.40;;;30.20;1.00;;;;;;4972492;28;20440;-87
2023/07/14 12:11:46;;;;;;;3.13;1.87;;;30.50;1.00;;;;;;4973352;28;20420;-86
2023/07/14 12:14:34;;;;;;;2.90;1.33;;;30.90;1.00;;;;;;4973269;28;20939;-86
2023/07/14 12:17:00;;;;;;;2.10;1.43;;;31.00;1.00;;;;;;4972942;28;20475;-86
2023/07/14 12:19:32;;;;;;;2.87;1.67;;;31.00;1.00;;;;;;4972020;28;20434;-87
2023/07/14 12:22:09;;;;;;;1.50;1.20;;;30.90;1.00;;;;;;4975232;28;20420;-85
2023/07/14 12:24:47;;;;;;;2.73;1.57;;;30.80;1.00;;;;;;4973784;28;20776;-83
2023/07/14 12:27:21;;;;;;;1.97;0.97;;;30.80;1.00;;;;;;4973444;28;20517;-84
2023/07/14 12:29:50;;;;;;;2.17;1.97;;;31.00;1.00;;;;;;4972589;28;20936;-85
2023/07/14 12:32:18;;;;;;;2.90;1.87;;;31.40;1.00;;;;;;4975330;28;20432;-86
2023/07/14 12:34:46;;;;;;;2.00;1.27;;;31.60;1.00;;;;;;4972298;28;20515;-87
2023/07/14 12:37:16;;;;;;;1.50;1.23;;;31.90;1.00;;;;;;4974388;28;20471;-87
2023/07/14 12:39:53;;;;;;;2.97;1.43;;;31.90;1.00;;;;;;4968464;28;20486;-87
2023/07/14 12:42:21;;;;;;;3.20;1.80;;;31.20;1.00;;;;;;4975061;28;20451;-88
2023/07/14 12:44:47;;;;;;;3.50;1.40;;;30.30;1.00;;;;;;4974759;28;20408;-86
2023/07/14 12:47:18;;;;;;;2.57;1.50;;;29.90;1.00;;;;;;4975222;28;20424;-88
2023/07/14 12:49:47;;;;;;;3.27;1.77;;;29.20;1.00;;;;;;4969760;28;20416;-86
2023/07/14 12:52:28;;;;;;;2.60;1.90;;;28.80;1.00;;;;;;4974605;28;20442;-88
2023/07/14 12:55:00;;;;;;;4.43;1.80;;;28.50;1.00;;;;;;4974005;28;20431;-86
2023/07/14 12:57:29;;;;;;;2.63;1.63;;;28.30;1.00;;;;;;4972652;28;20526;-88
2023/07/14 12:59:54;;;;;;;2.10;1.13;;;28.10;1.00;;;;;;4973522;28;20420;-87
2023/07/14 13:02:20;;;;;;;2.90;2.20;;;27.90;1.00;;;;;;4973520;28;20430;-86
2023/07/14 13:04:48;;;;;;;3.00;1.50;;;28.10;1.00;;;;;;4974271;28;20255;-87
2023/07/14 13:07:25;;;;;;;4.63;2.33;;;28.10;1.00;;;;;;4974825;28;20216;-87